sensor_id;sensor_type;location;lat;lon;timestamp;P1;durP1;ratioP1;P2;durP2;ratioP2
14235;SDS011;7202;50.718;7.072;2024-03-17T00:00:14;6.70;;;3.97;;
14235;SDS011;7202;50.718;7.072;2024-03-17T00:03:02;4.35;;;3.42;;
14235;SDS011;7202;50.718;7.072;2024-03-17T00:05:54;6.60;;;3.58;;
14235;SDS011;7202;50.718;7.072;2024-03-17T00:08:40;6.05;;;3.65;;
14235;SDS011;7202;50.718;7.072;2024-03-17T00:11:26;4.13;;;3.42;;
14235;SDS011;7202;50.718;7.072;2024-03-17T00:14:13;5.53;;;3.83;;
14235;SDS011;7202;50.718;7.072;2024-03-17T00:16:59;5.95;;;3.50;;
14235;SDS011;7202;50.718;7.072;2024-03-17T00:19:44;4.20;;;3.60;;
14235;SDS011;7202;50.718;7.072;2024-03-17T00:22:30;8.25;;;4.00;;
14235;SDS011;7202;50.718;7.072;2024-03-17T00:25:19;5.68;;;3.53;;
14235;SDS011;7202;50.718;7.072;2024-03-17T00:28:06;5.00;;;3.50;;
14235;SDS011;7202;50.718;7.072;2024-03-17T00:30:53;4.65;;;3.40;;
14235;SDS011;7202;50.718;7.072;2024-03-17T00:33:39;7.25;;;3.58;;
14235;SDS011;7202;50.718;7.072;2024-03-17T00:36:25;6.68;;;3.85;;
14235;SDS011;7202;50.718;7.072;2024-03-17T00:39:11;4.53;;;3.58;;
14235;SDS011;7202;50.718;7.072;2024-03-17T00:41:58;5.03;;;3.15;;
14235;SDS011;7202;50.718;7.072;2024-03-17T00:44:44;4.00;;;3.60;;
14235;SDS011;7202;50.718;7.072;2024-03-17T00:47:31;4.32;;;2.97;;
14235;SDS011;7202;50.718;7.072;2024-03-17T00:50:16;4.22;;;2.92;;
14235;SDS011;7202;50.718;7.072;2024-03-17T00:53:03;3.60;;;2.88;;
14235;SDS011;7202;50.718;7.072;2024-03-17T00:55:52;4.25;;;3.30;;
14235;SDS011;7202;50.718;7.072;2024-03-17T00:58:38;5.00;;;3.38;;
14235;SDS011;7202;50.718;7.072;2024-03-17T01:01:23;5.35;;;3.40;;
14235;SDS011;7202;50.718;7.072;2024-03-17T01:04:11;3.42;;;3.05;;
14235;SDS011;7202;50.718;7.072;2024-03-17T01:06:56;6.03;;;3.83;;
14235;SDS011;7202;50.718;7.072;2024-03-17T01:09:42;4.35;;;3.28;;
14235;SDS011;7202;50.718;7.072;2024-03-17T01:12:27;4.03;;;2.90;;
14235;SDS011;7202;50.718;7.072;2024-03-17T01:15:13;5.60;;;3.30;;
14235;SDS011;7202;50.718;7.072;2024-03-17T01:17:58;3.85;;;3.08;;
14235;SDS011;7202;50.718;7.072;2024-03-17T01:20:46;4.32;;;3.33;;
14235;SDS011;7202;50.718;7.072;2024-03-17T01:23:32;4.18;;;3.08;;
14235;SDS011;7202;50.718;7.072;2024-03-17T01:26:18;4.15;;;3.20;;
14235;SDS011;7202;50.718;7.072;2024-03-17T01:29:04;3.95;;;3.47;;
14235;SDS011;7202;50.718;7.072;2024-03-17T01:31:49;4.13;;;2.97;;
14235;SDS011;7202;50.718;7.072;2024-03-17T01:34:35;7.00;;;3.22;;
14235;SDS011;7202;50.718;7.072;2024-03-17T01:37:22;5.32;;;3.45;;
14235;SDS011;7202;50.718;7.072;2024-03-17T01:40:09;4.45;;;3.53;;
14235;SDS011;7202;50.718;7.072;2024-03-17T01:42:55;5.40;;;3.75;;
14235;SDS011;7202;50.718;7.072;2024-03-17T01:45:41;3.25;;;2.95;;
14235;SDS011;7202;50.718;7.072;2024-03-17T01:48:28;3.60;;;3.05;;
14235;SDS011;7202;50.718;7.072;2024-03-17T01:51:13;4.00;;;3.15;;
14235;SDS011;7202;50.718;7.072;2024-03-17T01:54:02;6.75;;;2.80;;
14235;SDS011;7202;50.718;7.072;2024-03-17T01:56:48;5.50;;;2.90;;
14235;SDS011;7202;50.718;7.072;2024-03-17T01:59:34;4.07;;;2.90;;
14235;SDS011;7202;50.718;7.072;2024-03-17T02:02:20;4.80;;;3.20;;
14235;SDS011;7202;50.718;7.072;2024-03-17T02:05:06;4.63;;;2.85;;
14235;SDS011;7202;50.718;7.072;2024-03-17T02:07:51;4.85;;;2.75;;
14235;SDS011;7202;50.718;7.072;2024-03-17T02:10:39;4.72;;;3.28;;
14235;SDS011;7202;50.718;7.072;2024-03-17T02:13:25;5.80;;;3.33;;
14235;SDS011;7202;50.718;7.072;2024-03-17T02:16:11;6.20;;;3.30;;
14235;SDS011;7202;50.718;7.072;2024-03-17T02:18:56;3.97;;;2.78;;
14235;SDS011;7202;50.718;7.072;2024-03-17T02:21:43;4.10;;;2.92;;
14235;SDS011;7202;50.718;7.072;2024-03-17T02:24:30;4.78;;;2.67;;
14235;SDS011;7202;50.718;7.072;2024-03-17T02:27:16;4.97;;;3.35;;
14235;SDS011;7202;50.718;7.072;2024-03-17T02:30:01;4.38;;;3.40;;
14235;SDS011;7202;50.718;7.072;2024-03-17T02:32:51;3.53;;;2.88;;
14235;SDS011;7202;50.718;7.072;2024-03-17T02:35:37;4.32;;;3.28;;
14235;SDS011;7202;50.718;7.072;2024-03-17T02:38:23;4.30;;;3.03;;
14235;SDS011;7202;50.718;7.072;2024-03-17T02:41:25;4.60;;;3.25;;
14235;SDS011;7202;50.718;7.072;2024-03-17T02:44:13;3.97;;;2.72;;
14235;SDS011;7202;50.718;7.072;2024-03-17T02:46:59;3.50;;;2.85;;
14235;SDS011;7202;50.718;7.072;2024-03-17T02:49:46;6.28;;;2.90;;
14235;SDS011;7202;50.718;7.072;2024-03-17T02:52:35;4.22;;;3.20;;
14235;SDS011;7202;50.718;7.072;2024-03-17T02:55:21;3.10;;;2.80;;
14235;SDS011;7202;50.718;7.072;2024-03-17T02:58:08;7.35;;;2.88;;
14235;SDS011;7202;50.718;7.072;2024-03-17T03:00:55;5.53;;;2.88;;
14235;SDS011;7202;50.718;7.072;2024-03-17T03:03:41;3.10;;;2.75;;
14235;SDS011;7202;50.718;7.072;2024-03-17T03:06:28;4.30;;;2.67;;
14235;SDS011;7202;50.718;7.072;2024-03-17T03:09:14;3.10;;;2.80;;
14235;SDS011;7202;50.718;7.072;2024-03-17T03:12:06;5.68;;;3.03;;
14235;SDS011;7202;50.718;7.072;2024-03-17T03:14:54;4.97;;;3.00;;
14235;SDS011;7202;50.718;7.072;2024-03-17T03:17:40;3.75;;;2.60;;
14235;SDS011;7202;50.718;7.072;2024-03-17T03:20:26;3.78;;;2.85;;
14235;SDS011;7202;50.718;7.072;2024-03-17T03:23:13;4.82;;;2.50;;
14235;SDS011;7202;50.718;7.072;2024-03-17T03:26:00;4.05;;;2.65;;
14235;SDS011;7202;50.718;7.072;2024-03-17T03:28:48;3.97;;;2.90;;
14235;SDS011;7202;50.718;7.072;2024-03-17T03:31:36;4.45;;;2.70;;
14235;SDS011;7202;50.718;7.072;2024-03-17T03:34:23;6.88;;;3.00;;
14235;SDS011;7202;50.718;7.072;2024-03-17T03:37:09;4.75;;;3.10;;
14235;SDS011;7202;50.718;7.072;2024-03-17T03:39:56;3.88;;;3.20;;
14235;SDS011;7202;50.718;7.072;2024-03-17T03:42:43;5.90;;;2.97;;
14235;SDS011;7202;50.718;7.072;2024-03-17T03:45:30;3.60;;;3.00;;
14235;SDS011;7202;50.718;7.072;2024-03-17T03:48:18;3.45;;;3.00;;
14235;SDS011;7202;50.718;7.072;2024-03-17T03:51:04;4.03;;;2.63;;
14235;SDS011;7202;50.718;7.072;2024-03-17T03:53:50;3.97;;;3.10;;
14235;SDS011;7202;50.718;7.072;2024-03-17T03:56:37;2.90;;;2.45;;
14235;SDS011;7202;50.718;7.072;2024-03-17T03:59:24;4.25;;;2.72;;
14235;SDS011;7202;50.718;7.072;2024-03-17T04:02:10;4.55;;;2.75;;
14235;SDS011;7202;50.718;7.072;2024-03-17T04:04:58;4.70;;;2.92;;
14235;SDS011;7202;50.718;7.072;2024-03-17T04:07:44;5.57;;;3.00;;
14235;SDS011;7202;50.718;7.072;2024-03-17T04:10:31;4.25;;;2.70;;
14235;SDS011;7202;50.718;7.072;2024-03-17T04:13:17;4.43;;;2.90;;
14235;SDS011;7202;50.718;7.072;2024-03-17T04:16:04;4.57;;;3.13;;
14235;SDS011;7202;50.718;7.072;2024-03-17T04:18:51;4.35;;;3.40;;
14235;SDS011;7202;50.718;7.072;2024-03-17T04:21:39;4.00;;;2.97;;
14235;SDS011;7202;50.718;7.072;2024-03-17T04:24:25;3.17;;;2.63;;
14235;SDS011;7202;50.718;7.072;2024-03-17T04:27:11;4.25;;;3.13;;
14235;SDS011;7202;50.718;7.072;2024-03-17T04:29:58;3.92;;;3.05;;
14235;SDS011;7202;50.718;7.072;2024-03-17T04:32:45;4.55;;;2.80;;
14235;SDS011;7202;50.718;7.072;2024-03-17T04:35:31;4.05;;;3.25;;
14235;SDS011;7202;50.718;7.072;2024-03-17T04:38:23;7.10;;;3.28;;
14235;SDS011;7202;50.718;7.072;2024-03-17T04:41:09;4.88;;;3.47;;
14235;SDS011;7202;50.718;7.072;2024-03-17T04:43:55;3.63;;;3.17;;
14235;SDS011;7202;50.718;7.072;2024-03-17T04:46:41;5.20;;;3.38;;
14235;SDS011;7202;50.718;7.072;2024-03-17T04:49:27;5.05;;;3.25;;
14235;SDS011;7202;50.718;7.072;2024-03-17T04:52:13;4.57;;;3.20;;
14235;SDS011;7202;50.718;7.072;2024-03-17T04:55:02;6.05;;;3.30;;
14235;SDS011;7202;50.718;7.072;2024-03-17T04:57:49;4.05;;;2.90;;
14235;SDS011;7202;50.718;7.072;2024-03-17T05:00:35;4.35;;;2.72;;
14235;SDS011;7202;50.718;7.072;2024-03-17T05:03:21;4.68;;;3.28;;
14235;SDS011;7202;50.718;7.072;2024-03-17T05:06:07;4.65;;;3.42;;
14235;SDS011;7202;50.718;7.072;2024-03-17T05:08:53;3.63;;;3.20;;
14235;SDS011;7202;50.718;7.072;2024-03-17T05:11:41;3.80;;;3.17;;
14235;SDS011;7202;50.718;7.072;2024-03-17T05:14:27;4.25;;;3.17;;
14235;SDS011;7202;50.718;7.072;2024-03-17T05:17:13;4.38;;;3.35;;
14235;SDS011;7202;50.718;7.072;2024-03-17T05:19:59;4.30;;;3.13;;
14235;SDS011;7202;50.718;7.072;2024-03-17T05:22:46;2.90;;;2.55;;
14235;SDS011;7202;50.718;7.072;2024-03-17T05:25:34;5.53;;;3.95;;
14235;SDS011;7202;50.718;7.072;2024-03-17T05:28:23;5.93;;;4.10;;
14235;SDS011;7202;50.718;7.072;2024-03-17T05:31:10;4.30;;;3.40;;
14235;SDS011;7202;50.718;7.072;2024-03-17T05:33:59;6.20;;;3.30;;
14235;SDS011;7202;50.718;7.072;2024-03-17T05:36:45;3.88;;;3.17;;
14235;SDS011;7202;50.718;7.072;2024-03-17T05:39:31;3.78;;;3.13;;
14235;SDS011;7202;50.718;7.072;2024-03-17T05:42:17;6.15;;;3.13;;
14235;SDS011;7202;50.718;7.072;2024-03-17T05:45:06;4.10;;;3.13;;
14235;SDS011;7202;50.718;7.072;2024-03-17T05:47:55;4.85;;;3.25;;
14235;SDS011;7202;50.718;7.072;2024-03-17T05:50:41;6.28;;;3.47;;
14235;SDS011;7202;50.718;7.072;2024-03-17T05:53:28;3.40;;;2.85;;
14235;SDS011;7202;50.718;7.072;2024-03-17T05:56:16;5.38;;;2.78;;
14235;SDS011;7202;50.718;7.072;2024-03-17T05:59:02;2.90;;;2.60;;
14235;SDS011;7202;50.718;7.072;2024-03-17T06:01:51;3.15;;;2.85;;
14235;SDS011;7202;50.718;7.072;2024-03-17T06:04:37;4.63;;;2.88;;
14235;SDS011;7202;50.718;7.072;2024-03-17T06:07:24;3.47;;;3.15;;
14235;SDS011;7202;50.718;7.072;2024-03-17T06:10:10;3.72;;;2.80;;
14235;SDS011;7202;50.718;7.072;2024-03-17T06:12:56;3.05;;;2.75;;
14235;SDS011;7202;50.718;7.072;2024-03-17T06:15:43;4.00;;;2.95;;
14235;SDS011;7202;50.718;7.072;2024-03-17T06:18:33;4.82;;;3.17;;
14235;SDS011;7202;50.718;7.072;2024-03-17T06:21:19;7.57;;;3.55;;
14235;SDS011;7202;50.718;7.072;2024-03-17T06:24:05;4.93;;;3.00;;
14235;SDS011;7202;50.718;7.072;2024-03-17T06:26:52;4.88;;;3.25;;
14235;SDS011;7202;50.718;7.072;2024-03-17T06:29:38;5.70;;;3.72;;
14235;SDS011;7202;50.718;7.072;2024-03-17T06:32:24;8.45;;;3.28;;
14235;SDS011;7202;50.718;7.072;2024-03-17T06:35:12;4.32;;;3.35;;
14235;SDS011;7202;50.718;7.072;2024-03-17T06:37:59;4.90;;;3.60;;
14235;SDS011;7202;50.718;7.072;2024-03-17T06:40:49;7.93;;;4.05;;
14235;SDS011;7202;50.718;7.072;2024-03-17T06:43:36;6.30;;;3.83;;
14235;SDS011;7202;50.718;7.072;2024-03-17T06:46:24;6.68;;;4.40;;
14235;SDS011;7202;50.718;7.072;2024-03-17T06:49:10;5.30;;;4.03;;
14235;SDS011;7202;50.718;7.072;2024-03-17T06:51:57;5.80;;;4.03;;
14235;SDS011;7202;50.718;7.072;2024-03-17T06:54:43;4.63;;;3.55;;
14235;SDS011;7202;50.718;7.072;2024-03-17T06:57:34;5.15;;;3.60;;
14235;SDS011;7202;50.718;7.072;2024-03-17T07:00:21;5.65;;;3.70;;
14235;SDS011;7202;50.718;7.072;2024-03-17T07:03:09;5.28;;;3.78;;
14235;SDS011;7202;50.718;7.072;2024-03-17T07:05:56;5.63;;;3.65;;
14235;SDS011;7202;50.718;7.072;2024-03-17T07:08:44;5.32;;;3.80;;
14235;SDS011;7202;50.718;7.072;2024-03-17T07:11:30;4.80;;;3.63;;
14235;SDS011;7202;50.718;7.072;2024-03-17T07:14:16;6.13;;;4.05;;
14235;SDS011;7202;50.718;7.072;2024-03-17T07:17:03;5.03;;;3.78;;
14235;SDS011;7202;50.718;7.072;2024-03-17T07:19:49;7.13;;;4.32;;
14235;SDS011;7202;50.718;7.072;2024-03-17T07:22:35;4.30;;;3.50;;
14235;SDS011;7202;50.718;7.072;2024-03-17T07:25:23;6.75;;;3.95;;
14235;SDS011;7202;50.718;7.072;2024-03-17T07:28:09;8.00;;;4.82;;
14235;SDS011;7202;50.718;7.072;2024-03-17T07:30:56;7.95;;;4.93;;
14235;SDS011;7202;50.718;7.072;2024-03-17T07:33:43;5.35;;;4.03;;
14235;SDS011;7202;50.718;7.072;2024-03-17T07:36:29;6.55;;;4.18;;
14235;SDS011;7202;50.718;7.072;2024-03-17T07:39:15;3.70;;;3.30;;
14235;SDS011;7202;50.718;7.072;2024-03-17T07:42:05;6.45;;;3.28;;
14235;SDS011;7202;50.718;7.072;2024-03-17T07:44:51;6.45;;;3.22;;
14235;SDS011;7202;50.718;7.072;2024-03-17T07:47:38;4.88;;;3.60;;
14235;SDS011;7202;50.718;7.072;2024-03-17T07:50:24;6.13;;;3.72;;
14235;SDS011;7202;50.718;7.072;2024-03-17T07:53:11;4.65;;;3.47;;
14235;SDS011;7202;50.718;7.072;2024-03-17T07:55:58;5.85;;;3.40;;
14235;SDS011;7202;50.718;7.072;2024-03-17T07:58:46;4.57;;;3.10;;
14235;SDS011;7202;50.718;7.072;2024-03-17T08:01:35;7.47;;;3.65;;
14235;SDS011;7202;50.718;7.072;2024-03-17T08:04:21;5.85;;;2.97;;
14235;SDS011;7202;50.718;7.072;2024-03-17T08:07:07;4.43;;;3.10;;
14235;SDS011;7202;50.718;7.072;2024-03-17T08:09:53;4.20;;;3.13;;
14235;SDS011;7202;50.718;7.072;2024-03-17T08:12:39;6.07;;;4.00;;
14235;SDS011;7202;50.718;7.072;2024-03-17T08:15:27;6.43;;;3.42;;
14235;SDS011;7202;50.718;7.072;2024-03-17T08:18:14;5.13;;;3.20;;
14235;SDS011;7202;50.718;7.072;2024-03-17T08:21:00;5.65;;;2.97;;
14235;SDS011;7202;50.718;7.072;2024-03-17T08:23:48;4.90;;;3.03;;
14235;SDS011;7202;50.718;7.072;2024-03-17T08:26:34;3.85;;;3.00;;
14235;SDS011;7202;50.718;7.072;2024-03-17T08:29:20;4.65;;;3.17;;
14235;SDS011;7202;50.718;7.072;2024-03-17T08:32:07;3.88;;;2.97;;
14235;SDS011;7202;50.718;7.072;2024-03-17T08:34:53;6.15;;;3.10;;
14235;SDS011;7202;50.718;7.072;2024-03-17T08:37:39;5.28;;;2.88;;
14235;SDS011;7202;50.718;7.072;2024-03-17T08:40:26;3.83;;;2.90;;
14235;SDS011;7202;50.718;7.072;2024-03-17T08:43:12;3.92;;;2.78;;
14235;SDS011;7202;50.718;7.072;2024-03-17T08:46:00;3.25;;;2.50;;
14235;SDS011;7202;50.718;7.072;2024-03-17T08:48:49;2.97;;;2.33;;
14235;SDS011;7202;50.718;7.072;2024-03-17T08:51:35;2.70;;;2.45;;
14235;SDS011;7202;50.718;7.072;2024-03-17T08:54:21;5.28;;;2.67;;
14235;SDS011;7202;50.718;7.072;2024-03-17T08:57:07;9.63;;;3.33;;
14235;SDS011;7202;50.718;7.072;2024-03-17T08:59:54;4.55;;;2.60;;
14235;SDS011;7202;50.718;7.072;2024-03-17T09:02:40;4.63;;;2.78;;
14235;SDS011;7202;50.718;7.072;2024-03-17T09:05:28;3.38;;;2.63;;
14235;SDS011;7202;50.718;7.072;2024-03-17T09:08:15;4.82;;;2.78;;
14235;SDS011;7202;50.718;7.072;2024-03-17T09:11:06;3.60;;;2.85;;
14235;SDS011;7202;50.718;7.072;2024-03-17T09:13:58;5.97;;;2.80;;
14235;SDS011;7202;50.718;7.072;2024-03-17T09:16:45;3.22;;;2.50;;
14235;SDS011;7202;50.718;7.072;2024-03-17T09:19:32;4.97;;;2.72;;
14235;SDS011;7202;50.718;7.072;2024-03-17T09:22:20;4.03;;;2.90;;
14235;SDS011;7202;50.718;7.072;2024-03-17T09:25:06;3.90;;;2.88;;
14235;SDS011;7202;50.718;7.072;2024-03-17T09:27:52;4.03;;;2.78;;
14235;SDS011;7202;50.718;7.072;2024-03-17T09:30:39;5.30;;;2.55;;
14235;SDS011;7202;50.718;7.072;2024-03-17T09:33:32;4.68;;;2.97;;
14235;SDS011;7202;50.718;7.072;2024-03-17T09:36:19;3.90;;;2.88;;
14235;SDS011;7202;50.718;7.072;2024-03-17T09:39:07;5.88;;;2.80;;
14235;SDS011;7202;50.718;7.072;2024-03-17T09:41:54;5.90;;;3.35;;
14235;SDS011;7202;50.718;7.072;2024-03-17T09:44:40;5.18;;;3.33;;
14235;SDS011;7202;50.718;7.072;2024-03-17T09:47:26;5.60;;;2.90;;
14235;SDS011;7202;50.718;7.072;2024-03-17T09:50:13;5.10;;;3.08;;
14235;SDS011;7202;50.718;7.072;2024-03-17T09:52:59;5.93;;;2.88;;
14235;SDS011;7202;50.718;7.072;2024-03-17T09:55:49;4.32;;;3.20;;
14235;SDS011;7202;50.718;7.072;2024-03-17T09:58:35;4.78;;;2.83;;
14235;SDS011;7202;50.718;7.072;2024-03-17T10:01:21;3.47;;;2.95;;
14235;SDS011;7202;50.718;7.072;2024-03-17T10:04:09;2.92;;;2.63;;
14235;SDS011;7202;50.718;7.072;2024-03-17T10:06:55;4.25;;;3.08;;
14235;SDS011;7202;50.718;7.072;2024-03-17T10:09:43;4.18;;;2.88;;
14235;SDS011;7202;50.718;7.072;2024-03-17T10:12:31;3.60;;;2.95;;
14235;SDS011;7202;50.718;7.072;2024-03-17T10:15:17;5.78;;;2.92;;
14235;SDS011;7202;50.718;7.072;2024-03-17T10:18:09;3.42;;;2.78;;
14235;SDS011;7202;50.718;7.072;2024-03-17T10:21:11;3.22;;;2.90;;
14235;SDS011;7202;50.718;7.072;2024-03-17T10:24:10;3.42;;;2.90;;
14235;SDS011;7202;50.718;7.072;2024-03-17T10:26:58;3.75;;;2.75;;
14235;SDS011;7202;50.718;7.072;2024-03-17T10:29:46;5.78;;;2.85;;
14235;SDS011;7202;50.718;7.072;2024-03-17T10:32:32;4.70;;;2.67;;
14235;SDS011;7202;50.718;7.072;2024-03-17T10:35:25;6.82;;;2.45;;
14235;SDS011;7202;50.718;7.072;2024-03-17T10:38:13;4.88;;;2.58;;
14235;SDS011;7202;50.718;7.072;2024-03-17T10:40:59;2.58;;;2.10;;
14235;SDS011;7202;50.718;7.072;2024-03-17T10:43:46;5.95;;;3.00;;
14235;SDS011;7202;50.718;7.072;2024-03-17T10:46:34;3.13;;;2.47;;
14235;SDS011;7202;50.718;7.072;2024-03-17T10:49:21;3.90;;;2.42;;
14235;SDS011;7202;50.718;7.072;2024-03-17T10:52:14;5.95;;;3.10;;
14235;SDS011;7202;50.718;7.072;2024-03-17T10:55:02;3.85;;;2.50;;
14235;SDS011;7202;50.718;7.072;2024-03-17T10:57:53;5.22;;;2.92;;
14235;SDS011;7202;50.718;7.072;2024-03-17T11:00:42;3.53;;;2.58;;
14235;SDS011;7202;50.718;7.072;2024-03-17T11:03:33;3.72;;;2.40;;
14235;SDS011;7202;50.718;7.072;2024-03-17T11:06:20;5.75;;;2.78;;
14235;SDS011;7202;50.718;7.072;2024-03-17T11:09:07;3.35;;;2.72;;
14235;SDS011;7202;50.718;7.072;2024-03-17T11:12:00;3.22;;;2.35;;
14235;SDS011;7202;50.718;7.072;2024-03-17T11:14:47;4.78;;;2.85;;
14235;SDS011;7202;50.718;7.072;2024-03-17T11:17:33;2.90;;;2.55;;
14235;SDS011;7202;50.718;7.072;2024-03-17T11:20:21;2.97;;;2.38;;
14235;SDS011;7202;50.718;7.072;2024-03-17T11:23:08;3.20;;;2.65;;
14235;SDS011;7202;50.718;7.072;2024-03-17T11:25:55;4.38;;;3.03;;
14235;SDS011;7202;50.718;7.072;2024-03-17T11:28:50;4.30;;;3.28;;
14235;SDS011;7202;50.718;7.072;2024-03-17T11:31:42;3.28;;;2.97;;
14235;SDS011;7202;50.718;7.072;2024-03-17T11:34:31;5.68;;;3.30;;
14235;SDS011;7202;50.718;7.072;2024-03-17T11:40:29;7.03;;;3.08;;
14235;SDS011;7202;50.718;7.072;2024-03-17T11:43:15;3.45;;;2.67;;
14235;SDS011;7202;50.718;7.072;2024-03-17T11:46:03;4.35;;;2.30;;
14235;SDS011;7202;50.718;7.072;2024-03-17T11:48:49;3.30;;;2.78;;
14235;SDS011;7202;50.718;7.072;2024-03-17T11:51:35;3.25;;;2.50;;
14235;SDS011;7202;50.718;7.072;2024-03-17T11:54:26;4.35;;;3.05;;
14235;SDS011;7202;50.718;7.072;2024-03-17T11:57:14;5.30;;;3.20;;
14235;SDS011;7202;50.718;7.072;2024-03-17T12:00:15;3.35;;;3.05;;
14235;SDS011;7202;50.718;7.072;2024-03-17T12:03:07;4.50;;;2.45;;
14235;SDS011;7202;50.718;7.072;2024-03-17T12:05:55;3.72;;;2.72;;
14235;SDS011;7202;50.718;7.072;2024-03-17T12:08:41;3.92;;;2.70;;
14235;SDS011;7202;50.718;7.072;2024-03-17T12:11:27;7.43;;;3.10;;
14235;SDS011;7202;50.718;7.072;2024-03-17T12:14:14;2.92;;;2.38;;
14235;SDS011;7202;50.718;7.072;2024-03-17T12:17:01;6.47;;;2.97;;
14235;SDS011;7202;50.718;7.072;2024-03-17T12:19:49;3.15;;;2.60;;
14235;SDS011;7202;50.718;7.072;2024-03-17T12:22:36;2.70;;;2.50;;
14235;SDS011;7202;50.718;7.072;2024-03-17T12:25:22;4.05;;;2.90;;
14235;SDS011;7202;50.718;7.072;2024-03-17T12:28:14;4.68;;;2.83;;
14235;SDS011;7202;50.718;7.072;2024-03-17T12:31:02;5.05;;;2.90;;
14235;SDS011;7202;50.718;7.072;2024-03-17T12:33:47;5.85;;;3.05;;
14235;SDS011;7202;50.718;7.072;2024-03-17T12:36:33;4.65;;;2.85;;
14235;SDS011;7202;50.718;7.072;2024-03-17T12:39:19;4.00;;;2.90;;
14235;SDS011;7202;50.718;7.072;2024-03-17T12:42:07;3.45;;;2.60;;
14235;SDS011;7202;50.718;7.072;2024-03-17T12:44:55;2.72;;;2.30;;
14235;SDS011;7202;50.718;7.072;2024-03-17T12:47:46;4.43;;;2.90;;
14235;SDS011;7202;50.718;7.072;2024-03-17T12:50:32;4.40;;;3.00;;
14235;SDS011;7202;50.718;7.072;2024-03-17T12:53:20;4.15;;;3.05;;
14235;SDS011;7202;50.718;7.072;2024-03-17T12:56:06;3.40;;;2.78;;
14235;SDS011;7202;50.718;7.072;2024-03-17T12:59:10;5.18;;;3.25;;
14235;SDS011;7202;50.718;7.072;2024-03-17T13:02:21;3.45;;;2.47;;
14235;SDS011;7202;50.718;7.072;2024-03-17T13:05:15;3.40;;;2.35;;
14235;SDS011;7202;50.718;7.072;2024-03-17T13:08:03;5.47;;;2.92;;
14235;SDS011;7202;50.718;7.072;2024-03-17T13:10:50;5.30;;;3.00;;
14235;SDS011;7202;50.718;7.072;2024-03-17T13:13:36;3.72;;;2.65;;
14235;SDS011;7202;50.718;7.072;2024-03-17T13:16:22;4.95;;;3.38;;
14235;SDS011;7202;50.718;7.072;2024-03-17T13:19:10;3.13;;;2.60;;
14235;SDS011;7202;50.718;7.072;2024-03-17T13:21:56;3.42;;;2.67;;
14235;SDS011;7202;50.718;7.072;2024-03-17T13:24:42;4.82;;;3.17;;
14235;SDS011;7202;50.718;7.072;2024-03-17T13:27:28;3.28;;;2.78;;
14235;SDS011;7202;50.718;7.072;2024-03-17T13:30:15;3.83;;;2.72;;
14235;SDS011;7202;50.718;7.072;2024-03-17T13:33:02;3.67;;;2.88;;
14235;SDS011;7202;50.718;7.072;2024-03-17T13:35:54;6.13;;;2.90;;
14235;SDS011;7202;50.718;7.072;2024-03-17T13:38:40;6.70;;;3.33;;
14235;SDS011;7202;50.718;7.072;2024-03-17T13:41:27;4.63;;;3.00;;
14235;SDS011;7202;50.718;7.072;2024-03-17T13:44:13;5.45;;;2.88;;
14235;SDS011;7202;50.718;7.072;2024-03-17T13:46:59;5.57;;;3.40;;
14235;SDS011;7202;50.718;7.072;2024-03-17T13:49:47;4.70;;;3.05;;
14235;SDS011;7202;50.718;7.072;2024-03-17T13:52:35;4.72;;;2.90;;
14235;SDS011;7202;50.718;7.072;2024-03-17T13:55:22;4.25;;;2.40;;
14235;SDS011;7202;50.718;7.072;2024-03-17T13:58:09;3.10;;;2.40;;
14235;SDS011;7202;50.718;7.072;2024-03-17T14:00:56;5.20;;;3.05;;
14235;SDS011;7202;50.718;7.072;2024-03-17T14:03:42;6.07;;;2.83;;
14235;SDS011;7202;50.718;7.072;2024-03-17T14:06:30;5.10;;;2.63;;
14235;SDS011;7202;50.718;7.072;2024-03-17T14:09:17;4.78;;;3.03;;
14235;SDS011;7202;50.718;7.072;2024-03-17T14:12:03;5.55;;;2.92;;
14235;SDS011;7202;50.718;7.072;2024-03-17T14:14:50;3.72;;;2.60;;
14235;SDS011;7202;50.718;7.072;2024-03-17T14:17:36;5.35;;;3.65;;
14235;SDS011;7202;50.718;7.072;2024-03-17T14:20:22;4.53;;;3.08;;
14235;SDS011;7202;50.718;7.072;2024-03-17T14:23:08;4.85;;;3.00;;
14235;SDS011;7202;50.718;7.072;2024-03-17T14:25:56;3.85;;;3.15;;
14235;SDS011;7202;50.718;7.072;2024-03-17T14:28:42;3.45;;;2.90;;
14235;SDS011;7202;50.718;7.072;2024-03-17T14:31:31;6.22;;;3.67;;
14235;SDS011;7202;50.718;7.072;2024-03-17T14:34:20;4.28;;;3.60;;
14235;SDS011;7202;50.718;7.072;2024-03-17T14:37:07;5.75;;;3.75;;
14235;SDS011;7202;50.718;7.072;2024-03-17T14:39:53;6.18;;;3.40;;
14235;SDS011;7202;50.718;7.072;2024-03-17T14:42:41;4.65;;;3.05;;
14235;SDS011;7202;50.718;7.072;2024-03-17T14:45:27;9.05;;;4.00;;
14235;SDS011;7202;50.718;7.072;2024-03-17T14:48:13;4.35;;;3.45;;
14235;SDS011;7202;50.718;7.072;2024-03-17T14:50:59;4.95;;;3.60;;
14235;SDS011;7202;50.718;7.072;2024-03-17T14:53:45;4.95;;;3.80;;
14235;SDS011;7202;50.718;7.072;2024-03-17T14:56:34;4.05;;;3.22;;
14235;SDS011;7202;50.718;7.072;2024-03-17T14:59:21;4.28;;;3.55;;
14235;SDS011;7202;50.718;7.072;2024-03-17T15:02:07;4.38;;;2.92;;
14235;SDS011;7202;50.718;7.072;2024-03-17T15:04:54;4.68;;;3.25;;
14235;SDS011;7202;50.718;7.072;2024-03-17T15:07:40;5.47;;;3.53;;
14235;SDS011;7202;50.718;7.072;2024-03-17T15:10:26;6.97;;;3.30;;
14235;SDS011;7202;50.718;7.072;2024-03-17T15:13:13;8.13;;;3.70;;
14235;SDS011;7202;50.718;7.072;2024-03-17T15:16:01;4.15;;;3.42;;
14235;SDS011;7202;50.718;7.072;2024-03-17T15:18:48;6.10;;;3.58;;
14235;SDS011;7202;50.718;7.072;2024-03-17T15:21:35;6.35;;;2.97;;
14235;SDS011;7202;50.718;7.072;2024-03-17T15:24:21;5.43;;;3.33;;
14235;SDS011;7202;50.718;7.072;2024-03-17T15:27:07;4.57;;;2.72;;
14235;SDS011;7202;50.718;7.072;2024-03-17T15:29:54;4.80;;;2.65;;
14235;SDS011;7202;50.718;7.072;2024-03-17T15:32:42;5.35;;;2.70;;
14235;SDS011;7202;50.718;7.072;2024-03-17T15:35:29;5.18;;;3.03;;
14235;SDS011;7202;50.718;7.072;2024-03-17T15:38:16;6.25;;;3.08;;
14235;SDS011;7202;50.718;7.072;2024-03-17T15:41:02;4.57;;;2.80;;
14235;SDS011;7202;50.718;7.072;2024-03-17T15:43:50;5.68;;;2.92;;
14235;SDS011;7202;50.718;7.072;2024-03-17T15:46:36;4.00;;;2.88;;
14235;SDS011;7202;50.718;7.072;2024-03-17T15:49:24;3.42;;;2.78;;
14235;SDS011;7202;50.718;7.072;2024-03-17T15:52:10;3.63;;;2.50;;
14235;SDS011;7202;50.718;7.072;2024-03-17T15:54:57;4.78;;;2.50;;
14235;SDS011;7202;50.718;7.072;2024-03-17T15:57:44;4.65;;;2.70;;
14235;SDS011;7202;50.718;7.072;2024-03-17T16:00:31;3.88;;;2.65;;
14235;SDS011;7202;50.718;7.072;2024-03-17T16:03:18;6.82;;;3.00;;
14235;SDS011;7202;50.718;7.072;2024-03-17T16:06:10;4.43;;;2.58;;
14235;SDS011;7202;50.718;7.072;2024-03-17T16:08:58;4.80;;;2.53;;
14235;SDS011;7202;50.718;7.072;2024-03-17T16:11:45;5.25;;;2.80;;
14235;SDS011;7202;50.718;7.072;2024-03-17T16:14:32;4.55;;;2.53;;
14235;SDS011;7202;50.718;7.072;2024-03-17T16:17:22;6.03;;;2.53;;
14235;SDS011;7202;50.718;7.072;2024-03-17T16:20:08;5.13;;;2.50;;
14235;SDS011;7202;50.718;7.072;2024-03-17T16:23:21;4.00;;;2.70;;
14235;SDS011;7202;50.718;7.072;2024-03-17T16:26:07;4.25;;;2.22;;
14235;SDS011;7202;50.718;7.072;2024-03-17T16:28:53;3.65;;;2.30;;
14235;SDS011;7202;50.718;7.072;2024-03-17T16:31:40;4.05;;;2.20;;
14235;SDS011;7202;50.718;7.072;2024-03-17T16:34:28;4.72;;;2.20;;
14235;SDS011;7202;50.718;7.072;2024-03-17T16:37:15;3.97;;;2.20;;
14235;SDS011;7202;50.718;7.072;2024-03-17T16:40:02;2.10;;;1.90;;
14235;SDS011;7202;50.718;7.072;2024-03-17T16:42:51;3.67;;;1.88;;
14235;SDS011;7202;50.718;7.072;2024-03-17T16:45:38;4.38;;;1.90;;
14235;SDS011;7202;50.718;7.072;2024-03-17T16:48:30;4.05;;;1.95;;
14235;SDS011;7202;50.718;7.072;2024-03-17T16:51:16;2.50;;;2.05;;
14235;SDS011;7202;50.718;7.072;2024-03-17T16:54:04;6.43;;;1.95;;
14235;SDS011;7202;50.718;7.072;2024-03-17T16:56:52;5.10;;;1.73;;
14235;SDS011;7202;50.718;7.072;2024-03-17T16:59:38;3.50;;;1.67;;
14235;SDS011;7202;50.718;7.072;2024-03-17T17:02:26;6.97;;;1.98;;
14235;SDS011;7202;50.718;7.072;2024-03-17T17:05:12;3.65;;;1.95;;